createdAt,value
2022-10-18T00:00:41.358Z,83.72
2022-10-18T00:03:04.162Z,84.35
2022-10-18T00:05:26.848Z,83.97
2022-10-18T00:07:49.439Z,83.91
2022-10-18T00:10:12.333Z,83.80
2022-10-18T00:12:36.532Z,83.88
2022-10-18T00:14:59.230Z,83.98
2022-10-18T00:17:21.838Z,84.16
2022-10-18T00:19:45.195Z,84.79
2022-10-18T00:22:07.863Z,85.31
2022-10-18T00:24:30.483Z,85.53
2022-10-18T00:26:53.228Z,85.61
2022-10-18T00:29:16.558Z,85.97
2022-10-18T00:31:39.325Z,86.23
2022-10-18T00:34:14.330Z,86.49
2022-10-18T00:36:36.869Z,86.11
2022-10-18T00:38:59.538Z,86.01
2022-10-18T00:41:28.728Z,86.50
2022-10-18T00:44:14.249Z,87.25
2022-10-18T00:46:46.734Z,87.78
2022-10-18T00:49:16.191Z,87.96
2022-10-18T00:51:53.565Z,88.15
2022-10-18T00:54:17.494Z,87.52
2022-10-18T00:56:40.068Z,87.68
2022-10-18T00:59:03.197Z,88.22
2022-10-18T01:01:28.290Z,88.27
2022-10-18T01:03:52.367Z,88.41
2022-10-18T01:06:14.870Z,88.15
2022-10-18T01:09:10.313Z,87.90
2022-10-18T01:12:10.466Z,88.26
2022-10-18T01:14:52.890Z,88.54
2022-10-18T01:17:22.891Z,88.53
2022-10-18T01:20:07.367Z,88.26
2022-10-18T01:22:44.736Z,88.39
2022-10-18T01:25:28.245Z,88.15
2022-10-18T01:28:23.021Z,87.94
2022-10-18T01:31:01.673Z,87.99
2022-10-18T01:33:45.672Z,87.81
2022-10-18T01:36:35.811Z,88.13
2022-10-18T01:39:02.375Z,88.13
2022-10-18T01:41:26.809Z,88.16
2022-10-18T01:43:52.690Z,87.83
2022-10-18T01:46:21.428Z,87.78
2022-10-18T01:48:44.083Z,87.88
2022-10-18T01:51:06.611Z,87.51
2022-10-18T01:53:33.980Z,87.55
2022-10-18T01:56:06.152Z,87.50
2022-10-18T01:58:38.500Z,87.52
2022-10-18T02:03:40.862Z,87.46
2022-10-18T02:06:14.663Z,87.81
2022-10-18T02:08:51.039Z,88.07
2022-10-18T02:11:15.573Z,87.75
2022-10-18T02:13:58.576Z,87.82
2022-10-18T02:16:37.774Z,88.18
2022-10-18T02:19:08.000Z,88.31
2022-10-18T02:21:32.271Z,88.48
2022-10-18T02:23:57.345Z,88.95
2022-10-18T02:26:20.108Z,89.06
2022-10-18T02:28:43.471Z,89.04
2022-10-18T02:31:36.108Z,88.71
2022-10-18T02:34:22.562Z,88.47
2022-10-18T02:36:53.028Z,88.55
2022-10-18T02:39:20.036Z,88.23
2022-10-18T02:41:43.467Z,88.10
2022-10-18T02:44:06.263Z,88.25
2022-10-18T02:46:28.907Z,88.40
2022-10-18T02:48:51.544Z,88.10
2022-10-18T02:51:14.343Z,88.04
2022-10-18T02:53:36.994Z,88.18
2022-10-18T02:55:59.516Z,88.13
2022-10-18T02:58:22.411Z,88.39
2022-10-18T03:00:44.900Z,88.42
2022-10-18T03:03:07.411Z,88.33
2022-10-18T03:05:29.901Z,88.32
2022-10-18T03:07:52.368Z,88.40
2022-10-18T03:10:15.055Z,88.43
2022-10-18T03:12:37.857Z,88.28
2022-10-18T03:15:00.307Z,88.25
2022-10-18T03:17:22.852Z,87.89
2022-10-18T03:19:45.464Z,88.09
2022-10-18T03:22:08.195Z,88.50
2022-10-18T03:24:30.647Z,88.39
2022-10-18T03:26:53.152Z,88.85
2022-10-18T03:29:15.617Z,88.55
2022-10-18T03:31:38.453Z,88.84
2022-10-18T03:34:01.342Z,89.18
2022-10-18T03:36:23.910Z,88.98
2022-10-18T03:38:46.454Z,89.15
2022-10-18T03:41:09.038Z,88.50
2022-10-18T03:43:31.659Z,88.79
2022-10-18T03:45:54.494Z,88.78
2022-10-18T03:48:17.206Z,88.76
2022-10-18T03:50:39.792Z,88.99
2022-10-18T03:53:02.552Z,89.17
2022-10-18T03:55:25.159Z,89.18
2022-10-18T03:57:47.828Z,89.36
2022-10-18T04:00:11.146Z,88.70
2022-10-18T04:02:37.941Z,88.67
2022-10-18T04:05:00.501Z,88.94
2022-10-18T04:07:22.958Z,89.66
2022-10-18T04:09:46.012Z,89.79
2022-10-18T04:12:08.479Z,89.61
2022-10-18T04:14:30.988Z,89.34
2022-10-18T04:16:53.512Z,89.24
2022-10-18T04:19:16.452Z,89.57
2022-10-18T04:21:39.116Z,89.78
2022-10-18T04:24:22.244Z,89.77
2022-10-18T04:27:05.828Z,89.29
2022-10-18T04:29:29.531Z,89.79
2022-10-18T04:31:52.195Z,89.38
2022-10-18T04:34:15.877Z,88.91
2022-10-18T04:36:38.438Z,88.69
2022-10-18T04:39:01.011Z,88.63
2022-10-18T04:41:23.448Z,88.25
2022-10-18T04:46:13.575Z,89.86
2022-10-18T04:48:36.031Z,90.23
2022-10-18T04:50:58.709Z,90.17
2022-10-18T04:53:21.184Z,90.19
2022-10-18T04:55:49.045Z,89.98
2022-10-18T04:58:12.019Z,90.23
2022-10-18T05:00:39.138Z,90.28
2022-10-18T05:03:02.649Z,90.07
2022-10-18T05:05:33.127Z,89.64
2022-10-18T05:08:08.034Z,89.09
2022-10-18T05:10:35.171Z,89.53
2022-10-18T05:12:57.780Z,89.04
2022-10-18T05:15:20.376Z,89.25
2022-10-18T05:17:43.369Z,88.87
2022-10-18T05:20:06.799Z,88.77
2022-10-18T05:22:29.742Z,89.04
2022-10-18T05:24:52.491Z,89.05
2022-10-18T05:27:15.243Z,88.99
2022-10-18T05:29:38.086Z,88.49
2022-10-18T05:32:00.631Z,88.42
2022-10-18T05:34:24.718Z,88.27
2022-10-18T05:36:49.386Z,88.32
2022-10-18T05:39:12.160Z,88.36
2022-10-18T05:41:34.871Z,87.92
2022-10-18T05:43:57.359Z,88.08
2022-10-18T05:46:20.096Z,87.39
2022-10-18T05:48:44.413Z,87.00
2022-10-18T05:51:07.284Z,86.75
2022-10-18T05:53:38.246Z,86.46
2022-10-18T05:56:02.672Z,86.04
2022-10-18T05:58:25.294Z,85.45
2022-10-18T06:00:48.795Z,85.57
2022-10-18T06:03:12.846Z,85.47
2022-10-18T06:05:36.356Z,85.17
2022-10-18T06:07:59.502Z,84.62
2022-10-18T06:10:22.013Z,84.62
2022-10-18T06:12:45.041Z,84.13
2022-10-18T06:15:08.614Z,83.78
2022-10-18T06:17:32.594Z,83.85
2022-10-18T06:19:56.478Z,83.16
2022-10-18T06:22:19.016Z,82.41
2022-10-18T06:24:41.637Z,81.99
2022-10-18T06:27:09.069Z,82.12
2022-10-18T06:29:31.855Z,82.33
2022-10-18T06:31:54.431Z,82.16
2022-10-18T06:34:17.185Z,81.57
2022-10-18T06:36:40.688Z,81.12
2022-10-18T06:39:03.485Z,81.08
2022-10-18T06:41:26.388Z,80.85
2022-10-18T06:43:50.518Z,79.22
2022-10-18T06:46:14.194Z,79.10
2022-10-18T06:48:38.638Z,78.57
2022-10-18T06:51:04.040Z,78.42
2022-10-18T06:53:32.277Z,77.78
2022-10-18T06:56:05.661Z,77.51
2022-10-18T06:58:29.519Z,77.81
2022-10-18T07:00:52.534Z,76.79
2022-10-18T07:03:15.612Z,77.14
2022-10-18T07:05:40.759Z,76.81
2022-10-18T07:08:03.709Z,76.64
2022-10-18T07:10:26.419Z,76.50
2022-10-18T07:12:49.139Z,76.57
2022-10-18T07:15:11.779Z,75.33
2022-10-18T07:17:34.720Z,73.97
2022-10-18T07:19:57.471Z,70.49
2022-10-18T07:22:20.065Z,69.01
2022-10-18T07:24:42.933Z,67.77
2022-10-18T07:27:05.666Z,65.48
2022-10-18T07:29:28.920Z,63.36
2022-10-18T07:31:51.561Z,62.09
2022-10-18T07:34:14.753Z,61.30
2022-10-18T07:36:37.714Z,59.65
2022-10-18T07:39:01.259Z,57.83
2022-10-18T07:41:23.972Z,58.83
2022-10-18T07:43:48.776Z,60.02
2022-10-18T07:46:12.403Z,61.74
2022-10-18T07:48:34.956Z,63.53
2022-10-18T07:51:01.898Z,62.55
2022-10-18T07:53:24.512Z,63.66
2022-10-18T07:55:47.146Z,64.68
2022-10-18T07:58:09.862Z,65.56
2022-10-18T08:00:32.694Z,65.60
2022-10-18T08:02:59.016Z,65.69
2022-10-18T08:05:21.624Z,66.61
2022-10-18T08:07:44.233Z,67.02
2022-10-18T08:10:07.024Z,67.14
2022-10-18T08:12:29.761Z,66.24
2022-10-18T08:14:52.329Z,66.79
2022-10-18T08:17:14.785Z,64.68
2022-10-18T08:19:48.232Z,64.74
2022-10-18T08:22:22.902Z,64.49
2022-10-18T08:24:45.562Z,62.98
2022-10-18T08:27:08.412Z,61.72
2022-10-18T08:29:32.167Z,62.93
2022-10-18T08:31:54.857Z,62.84
2022-10-18T08:34:19.885Z,63.43
2022-10-18T08:36:42.662Z,62.28
2022-10-18T08:39:05.489Z,61.34
2022-10-18T08:41:36.999Z,61.16
2022-10-18T08:44:18.276Z,60.86
2022-10-18T08:46:45.950Z,60.42
2022-10-18T08:49:14.261Z,59.68
2022-10-18T08:51:46.762Z,59.03
2022-10-18T08:54:36.909Z,60.60
2022-10-18T08:57:02.237Z,59.26
2022-10-18T08:59:25.719Z,60.15
2022-10-18T09:02:18.129Z,59.35
2022-10-18T09:05:17.377Z,60.25
2022-10-18T09:08:12.542Z,59.17
2022-10-18T09:10:44.370Z,58.98
2022-10-18T09:13:51.220Z,59.25
2022-10-18T09:16:32.780Z,58.05
2022-10-18T09:19:04.327Z,58.40
2022-10-18T09:21:33.061Z,57.47
2022-10-18T09:24:06.067Z,58.27
2022-10-18T09:26:32.285Z,58.37
2022-10-18T09:29:25.362Z,57.35
2022-10-18T09:32:41.937Z,56.79
2022-10-18T09:35:30.470Z,55.92
2022-10-18T09:37:59.758Z,56.59
2022-10-18T09:40:29.103Z,58.19
2022-10-18T09:43:07.121Z,56.27
2022-10-18T09:45:51.006Z,56.33
2022-10-18T09:48:16.062Z,56.02
2022-10-18T09:50:40.683Z,56.78
2022-10-18T09:53:13.628Z,55.94
2022-10-18T09:55:42.507Z,55.02
2022-10-18T09:58:07.709Z,54.16
2022-10-18T10:00:39.088Z,54.22
2022-10-18T10:03:02.634Z,54.02
2022-10-18T10:05:29.733Z,52.70
2022-10-18T10:07:59.975Z,52.33
2022-10-18T10:10:26.018Z,53.52
2022-10-18T10:13:02.119Z,53.54
2022-10-18T10:15:31.215Z,52.73
2022-10-18T10:18:03.825Z,53.07
2022-10-18T10:20:46.083Z,53.08
2022-10-18T10:23:26.136Z,53.85
2022-10-18T10:25:56.960Z,53.20
2022-10-18T10:28:26.064Z,52.85
2022-10-18T10:30:48.952Z,52.91
2022-10-18T10:33:32.602Z,53.17
2022-10-18T10:35:59.737Z,51.72
2022-10-18T10:38:27.710Z,51.11
2022-10-18T10:40:51.663Z,52.10
2022-10-18T10:43:36.318Z,51.24
2022-10-18T10:46:01.751Z,51.84
2022-10-18T10:48:28.823Z,53.09
2022-10-18T10:51:08.077Z,50.85
2022-10-18T10:53:43.263Z,50.63
2022-10-18T10:56:15.963Z,50.95
2022-10-18T10:58:40.922Z,52.00
2022-10-18T11:01:25.566Z,51.17
2022-10-18T11:03:51.567Z,51.23
2022-10-18T11:06:35.333Z,51.45
2022-10-18T11:09:00.029Z,50.41
2022-10-18T11:11:28.475Z,50.72
2022-10-18T11:14:31.575Z,50.53
2022-10-18T11:17:21.413Z,50.56
2022-10-18T11:20:01.410Z,49.70
2022-10-18T11:22:26.369Z,50.31
2022-10-18T11:24:49.151Z,49.01
2022-10-18T11:27:23.318Z,49.61
2022-10-18T11:29:56.931Z,49.33
2022-10-18T11:32:54.934Z,49.40
2022-10-18T11:35:26.743Z,49.36
2022-10-18T11:38:21.753Z,48.58
2022-10-18T11:40:50.605Z,48.25
2022-10-18T11:43:27.175Z,48.98
2022-10-18T11:46:17.175Z,48.61
2022-10-18T11:48:58.108Z,48.27
2022-10-18T11:52:07.437Z,48.86
2022-10-18T11:54:59.164Z,47.97
2022-10-18T11:57:49.427Z,47.31
2022-10-18T12:00:21.284Z,47.44
2022-10-18T12:03:02.146Z,46.73
2022-10-18T12:05:25.240Z,48.06
2022-10-18T12:07:58.588Z,47.76
2022-10-18T12:10:31.740Z,48.65
2022-10-18T12:13:08.211Z,48.09
2022-10-18T12:15:34.200Z,48.06
2022-10-18T12:18:01.275Z,48.13
2022-10-18T12:20:29.917Z,47.23
2022-10-18T12:23:03.906Z,47.52
2022-10-18T12:25:29.629Z,46.53
2022-10-18T12:30:42.467Z,46.43
2022-10-18T12:33:28.380Z,46.35
2022-10-18T12:36:21.914Z,46.91
2022-10-18T12:38:48.216Z,47.06
2022-10-18T12:41:26.335Z,47.11
2022-10-18T12:43:54.974Z,46.41
2022-10-18T12:46:17.879Z,46.77
2022-10-18T12:48:48.963Z,46.54
2022-10-18T12:51:16.625Z,46.65
2022-10-18T12:53:41.985Z,46.41
2022-10-18T12:56:34.205Z,45.26
2022-10-18T12:59:15.113Z,45.98
2022-10-18T13:02:00.762Z,46.27
2022-10-18T13:04:29.653Z,45.87
2022-10-18T13:06:58.576Z,44.68
2022-10-18T13:09:21.660Z,44.41
2022-10-18T13:11:44.770Z,45.43
2022-10-18T13:14:38.757Z,45.70
2022-10-18T13:17:47.978Z,45.12
2022-10-18T13:20:26.406Z,44.94
2022-10-18T13:22:52.740Z,43.84
2022-10-18T13:25:23.908Z,43.90
2022-10-18T13:27:58.613Z,44.22
2022-10-18T13:30:39.855Z,44.35
2022-10-18T13:33:27.662Z,45.07
2022-10-18T13:35:52.278Z,44.07
2022-10-18T13:38:52.509Z,44.72
2022-10-18T13:41:21.060Z,43.90
2022-10-18T13:43:52.807Z,42.47
2022-10-18T13:46:15.833Z,43.90
2022-10-18T13:48:38.273Z,43.35
2022-10-18T13:51:29.481Z,42.61
2022-10-18T13:54:07.173Z,43.85
2022-10-18T13:56:56.467Z,43.30
2022-10-18T13:59:32.531Z,42.90
2022-10-18T14:02:30.770Z,43.32
2022-10-18T14:05:25.460Z,43.06
2022-10-18T14:07:50.566Z,43.75
2022-10-18T14:11:01.342Z,43.60
2022-10-18T14:13:30.867Z,44.30
2022-10-18T14:16:01.981Z,44.80
2022-10-18T14:18:32.999Z,44.09
2022-10-18T14:21:13.304Z,46.11
2022-10-18T14:23:43.439Z,42.92
2022-10-18T14:26:17.118Z,43.58
2022-10-18T14:28:58.637Z,43.12
2022-10-18T14:31:22.446Z,43.03
2022-10-18T14:33:57.919Z,43.27
2022-10-18T14:36:21.062Z,43.86
2022-10-18T14:38:46.538Z,43.67
2022-10-18T14:41:16.922Z,44.55
2022-10-18T14:43:39.563Z,44.83
2022-10-18T14:46:10.397Z,44.84
2022-10-18T14:48:33.171Z,45.60
2022-10-18T14:51:00.289Z,45.71
2022-10-18T14:53:25.138Z,46.01
2022-10-18T14:56:04.120Z,46.83
2022-10-18T14:58:27.760Z,46.50
2022-10-18T15:00:50.508Z,46.03
2022-10-18T15:03:15.838Z,45.84
2022-10-18T15:06:00.701Z,46.46
2022-10-18T15:08:47.757Z,46.70
2022-10-18T15:11:14.474Z,46.80
2022-10-18T15:13:46.757Z,47.11
2022-10-18T15:16:16.919Z,48.33
2022-10-18T15:18:39.498Z,48.92
2022-10-18T15:21:10.712Z,49.83
2022-10-18T15:23:33.557Z,49.06
2022-10-18T15:26:12.699Z,50.72
2022-10-18T15:28:49.552Z,50.66
2022-10-18T15:31:25.257Z,51.78
2022-10-18T15:33:47.895Z,52.93
2022-10-18T15:36:12.686Z,53.32
2022-10-18T15:38:37.045Z,54.12
2022-10-18T15:40:59.659Z,54.49
2022-10-18T15:43:28.527Z,54.33
2022-10-18T15:45:58.842Z,55.16
2022-10-18T15:48:34.852Z,56.02
2022-10-18T15:51:04.783Z,55.40
2022-10-18T15:53:40.662Z,56.84
2022-10-18T15:56:21.568Z,57.22
2022-10-18T15:58:45.344Z,57.27
2022-10-18T16:01:15.627Z,57.15
2022-10-18T16:03:39.516Z,58.12
2022-10-18T16:06:11.374Z,58.77
2022-10-18T16:08:41.178Z,58.59
2022-10-18T16:11:03.843Z,59.08
2022-10-18T16:13:26.970Z,59.51
2022-10-18T16:15:49.608Z,59.53
2022-10-18T16:18:15.477Z,59.53
2022-10-18T16:20:37.934Z,59.51
2022-10-18T16:23:00.501Z,59.37
2022-10-18T16:25:23.140Z,61.49
2022-10-18T16:27:45.973Z,62.17
2022-10-18T16:30:15.295Z,61.05
2022-10-18T16:32:38.011Z,62.30
2022-10-18T16:35:00.554Z,61.41
2022-10-18T16:37:23.135Z,60.90
2022-10-18T16:39:45.685Z,61.98
2022-10-18T16:42:08.394Z,62.10
2022-10-18T16:44:30.979Z,62.79
2022-10-18T16:46:55.491Z,62.77
2022-10-18T16:49:24.378Z,62.41
2022-10-18T16:51:47.503Z,64.08
2022-10-18T16:54:10.037Z,63.97
2022-10-18T16:56:33.755Z,63.28
2022-10-18T16:58:57.311Z,63.73
2022-10-18T17:01:21.833Z,64.23
2022-10-18T17:03:45.074Z,65.35
2022-10-18T17:06:16.409Z,65.44
2022-10-18T17:08:39.166Z,65.09
2022-10-18T17:11:02.210Z,66.20
2022-10-18T17:13:26.013Z,66.13
2022-10-18T17:15:49.339Z,65.73
2022-10-18T17:18:15.025Z,66.70
2022-10-18T17:20:37.537Z,66.67
2022-10-18T17:23:00.053Z,65.97
2022-10-18T17:25:22.605Z,65.67
2022-10-18T17:27:45.935Z,66.59
2022-10-18T17:30:15.254Z,67.49
2022-10-18T17:32:38.565Z,68.41
2022-10-18T17:35:01.200Z,68.19
2022-10-18T17:37:23.844Z,67.16
2022-10-18T17:39:46.578Z,67.44
2022-10-18T17:42:09.164Z,67.52
2022-10-18T17:44:31.683Z,68.07
2022-10-18T17:46:54.340Z,68.99
2022-10-18T17:49:17.852Z,69.41
2022-10-18T17:51:41.425Z,69.14
2022-10-18T17:54:05.852Z,69.12
2022-10-18T17:56:33.284Z,68.71
2022-10-18T17:58:55.746Z,69.33
2022-10-18T18:01:21.108Z,68.39
2022-10-18T18:03:43.897Z,67.61
2022-10-18T18:06:14.764Z,68.55
2022-10-18T18:08:37.975Z,68.90
2022-10-18T18:11:00.564Z,69.81
2022-10-18T18:13:23.100Z,69.92
2022-10-18T18:15:45.667Z,70.85
2022-10-18T18:18:08.247Z,70.96
2022-10-18T18:20:30.790Z,71.42
2022-10-18T18:22:53.574Z,71.66
2022-10-18T18:25:16.000Z,71.70
2022-10-18T18:27:39.120Z,71.97
2022-10-18T18:30:06.486Z,71.80
2022-10-18T18:32:33.000Z,71.84
2022-10-18T18:34:55.701Z,71.68
2022-10-18T18:37:18.474Z,71.55
2022-10-18T18:39:41.335Z,71.49
2022-10-18T18:42:04.515Z,71.37
2022-10-18T18:44:27.053Z,72.64
2022-10-18T18:46:49.764Z,72.62
2022-10-18T18:49:13.278Z,72.68
2022-10-18T18:51:40.292Z,72.99
2022-10-18T18:54:04.167Z,72.77
2022-10-18T18:56:29.104Z,71.54
2022-10-18T18:58:53.734Z,71.53
2022-10-18T19:01:22.412Z,71.43
2022-10-18T19:03:47.923Z,72.21
2022-10-18T19:06:16.606Z,72.90
2022-10-18T19:08:40.171Z,73.50
2022-10-18T19:11:06.800Z,72.75
2022-10-18T19:13:31.558Z,72.17
2022-10-18T19:16:10.773Z,72.43
2022-10-18T19:18:33.653Z,72.49
2022-10-18T19:20:56.254Z,72.90
2022-10-18T19:23:19.329Z,74.06
2022-10-18T19:25:41.897Z,73.94
2022-10-18T19:28:04.537Z,73.87
2022-10-18T19:30:28.956Z,72.95
2022-10-18T19:33:01.114Z,72.95
2022-10-18T19:35:26.234Z,73.91
2022-10-18T19:37:48.756Z,74.62
2022-10-18T19:40:11.786Z,74.17
2022-10-18T19:42:36.135Z,73.93
2022-10-18T19:44:58.951Z,73.77
2022-10-18T19:47:21.704Z,73.19
2022-10-18T19:49:46.192Z,73.58
2022-10-18T19:52:09.279Z,73.23
2022-10-18T19:54:31.912Z,73.22
2022-10-18T19:56:54.616Z,73.18
2022-10-18T19:59:17.758Z,73.65
2022-10-18T20:01:40.903Z,74.29
2022-10-18T20:04:04.577Z,74.61
2022-10-18T20:06:27.095Z,74.96
2022-10-18T20:08:50.079Z,74.70
2022-10-18T20:11:16.193Z,75.03
2022-10-18T20:13:39.487Z,75.41
2022-10-18T20:16:03.797Z,75.45
2022-10-18T20:18:31.249Z,76.02
2022-10-18T20:20:53.972Z,76.55
2022-10-18T20:23:18.190Z,76.37
2022-10-18T20:25:40.646Z,76.15
2022-10-18T20:28:03.923Z,75.79
2022-10-18T20:30:26.772Z,75.81
2022-10-18T20:32:52.063Z,75.72
2022-10-18T20:35:14.496Z,76.21
2022-10-18T20:37:37.251Z,76.73
2022-10-18T20:40:02.599Z,76.34
2022-10-18T20:42:25.226Z,76.65
2022-10-18T20:44:48.441Z,76.57
2022-10-18T20:47:11.011Z,76.84
2022-10-18T20:49:34.292Z,77.00
2022-10-18T20:51:56.902Z,77.21
2022-10-18T20:54:19.360Z,77.14
2022-10-18T20:56:41.978Z,76.95
2022-10-18T20:59:06.384Z,77.06
2022-10-18T21:01:31.169Z,77.50
2022-10-18T21:04:06.128Z,77.55
2022-10-18T21:06:31.026Z,77.84
2022-10-18T21:09:05.771Z,77.74
2022-10-18T21:11:30.729Z,77.90
2022-10-18T21:13:59.583Z,77.70
2022-10-18T21:16:22.246Z,77.75
2022-10-18T21:18:44.830Z,77.73
2022-10-18T21:23:35.939Z,78.00
2022-10-18T21:25:58.483Z,77.95
2022-10-18T21:28:21.080Z,78.39
2022-10-18T21:30:44.236Z,78.38
2022-10-18T21:33:09.869Z,78.17
2022-10-18T21:35:36.405Z,78.13
2022-10-18T21:37:58.966Z,77.71
2022-10-18T21:40:22.703Z,78.12
2022-10-18T21:42:45.248Z,77.92
2022-10-18T21:45:08.161Z,77.86
2022-10-18T21:47:30.695Z,77.75
2022-10-18T21:49:53.287Z,77.56
2022-10-18T21:52:16.711Z,76.77
2022-10-18T21:54:39.346Z,76.54
2022-10-18T21:57:01.970Z,76.67
2022-10-18T21:59:24.853Z,76.55
2022-10-18T22:01:48.077Z,76.92
2022-10-18T22:04:22.242Z,76.98
2022-10-18T22:06:44.907Z,76.74
2022-10-18T22:09:08.594Z,76.84
2022-10-18T22:11:40.727Z,76.43
2022-10-18T22:14:03.407Z,76.01
2022-10-18T22:16:26.668Z,75.91
2022-10-18T22:18:50.725Z,76.00
2022-10-18T22:21:15.125Z,76.58
2022-10-18T22:23:46.324Z,76.74
2022-10-18T22:26:15.547Z,76.48
2022-10-18T22:28:39.857Z,75.94
2022-10-18T22:31:02.493Z,75.90
2022-10-18T22:33:25.097Z,75.10
2022-10-18T22:35:50.909Z,74.26
2022-10-18T22:38:13.375Z,74.51
2022-10-18T22:40:35.891Z,74.42
2022-10-18T22:42:58.388Z,74.75
2022-10-18T22:45:20.810Z,74.28
2022-10-18T22:47:43.436Z,74.59
2022-10-18T22:50:07.280Z,74.14
2022-10-18T22:52:29.944Z,74.19
2022-10-18T22:54:52.591Z,73.83
2022-10-18T22:57:15.034Z,73.45
2022-10-18T22:59:37.840Z,73.08
2022-10-18T23:02:00.733Z,73.33
2022-10-18T23:04:23.348Z,73.32
2022-10-18T23:06:45.915Z,73.34
2022-10-18T23:09:10.747Z,73.37
2022-10-18T23:11:34.469Z,72.95
2022-10-18T23:13:57.015Z,73.65
2022-10-18T23:16:20.017Z,73.37
2022-10-18T23:18:42.700Z,72.84
2022-10-18T23:21:13.286Z,73.12
2022-10-18T23:23:38.067Z,72.68
2022-10-18T23:26:02.087Z,73.44
2022-10-18T23:28:24.633Z,73.24
2022-10-18T23:30:47.144Z,73.58
2022-10-18T23:33:09.630Z,74.15
2022-10-18T23:35:32.239Z,74.00
2022-10-18T23:37:54.781Z,74.03
2022-10-18T23:40:19.522Z,73.54
2022-10-18T23:42:42.036Z,73.39
2022-10-18T23:45:05.013Z,73.08
2022-10-18T23:47:27.539Z,72.88
2022-10-18T23:49:57.377Z,72.70
2022-10-18T23:52:19.940Z,73.42
2022-10-18T23:57:09.989Z,73.69
2022-10-18T23:59:33.880Z,73.69
